createdAt,value
2023-02-15T00:08:57.011Z,2.20
2023-02-15T00:19:03.161Z,2.30
2023-02-15T00:29:06.854Z,2.30
2023-02-15T00:39:12.558Z,2.30
2023-02-15T00:49:16.323Z,2.30
2023-02-15T00:59:21.545Z,2.30
2023-02-15T01:09:25.562Z,2.30
2023-02-15T01:19:30.707Z,2.20
2023-02-15T01:29:34.684Z,2.20
2023-02-15T01:39:39.929Z,2.20
2023-02-15T01:49:46.628Z,2.30
2023-02-15T01:59:54.543Z,2.30
2023-02-15T02:09:58.621Z,2.40
2023-02-15T02:20:29.200Z,2.40
2023-02-15T02:31:17.681Z,2.40
2023-02-15T02:41:34.154Z,2.30
2023-02-15T02:51:39.029Z,2.30
2023-02-15T03:01:49.227Z,2.20
2023-02-15T03:11:54.759Z,2.20
2023-02-15T03:22:10.403Z,2.20
2023-02-15T03:32:17.063Z,2.10
2023-02-15T03:42:28.709Z,2.10
2023-02-15T03:52:36.209Z,2.00
2023-02-15T04:02:50.111Z,1.90
2023-02-15T04:12:53.982Z,1.90
2023-02-15T04:23:16.618Z,1.90
2023-02-15T04:33:20.399Z,1.90
2023-02-15T04:43:25.574Z,1.90
2023-02-15T04:53:29.369Z,2.00
2023-02-15T05:03:35.087Z,1.90
2023-02-15T05:13:38.904Z,1.90
2023-02-15T05:23:44.173Z,1.90
2023-02-15T05:33:48.221Z,1.80
2023-02-15T05:43:53.575Z,1.80
2023-02-15T05:53:57.371Z,1.80
2023-02-15T06:04:02.624Z,1.90
2023-02-15T06:14:06.342Z,1.90
2023-02-15T06:24:12.301Z,1.90
2023-02-15T06:34:16.138Z,1.90
2023-02-15T06:44:21.548Z,1.80
2023-02-15T06:54:25.522Z,2.00
2023-02-15T07:04:31.139Z,2.10
2023-02-15T07:14:34.896Z,2.40
2023-02-15T07:24:40.085Z,2.60
2023-02-15T07:34:43.846Z,3.30
2023-02-15T07:44:49.274Z,4.10
2023-02-15T07:54:53.134Z,6.60
2023-02-15T08:04:58.398Z,11.00
2023-02-15T08:15:02.080Z,13.70
2023-02-15T08:25:07.995Z,14.00
2023-02-15T08:35:11.560Z,16.90
2023-02-15T08:45:16.534Z,20.00
2023-02-15T08:55:20.043Z,21.00
2023-02-15T09:05:25.308Z,24.10
2023-02-15T09:15:29.065Z,26.40
2023-02-15T09:25:33.877Z,27.40
2023-02-15T09:35:37.423Z,28.10
2023-02-15T09:46:18.607Z,30.50
2023-02-15T09:56:38.066Z,32.00
2023-02-15T10:06:50.628Z,33.10
2023-02-15T10:17:04.323Z,34.40
2023-02-15T10:27:15.792Z,34.90
2023-02-15T10:37:49.505Z,36.40
2023-02-15T10:48:12.959Z,37.80
2023-02-15T10:58:38.332Z,37.50
2023-02-15T11:08:47.976Z,37.50
2023-02-15T11:18:57.568Z,38.60
2023-02-15T11:29:12.165Z,39.00
2023-02-15T11:39:32.860Z,38.70
2023-02-15T11:49:41.676Z,40.30
2023-02-15T11:59:53.386Z,40.00
2023-02-15T12:10:14.944Z,39.30
2023-02-15T12:20:30.801Z,40.10
2023-02-15T12:30:39.534Z,40.80
2023-02-15T12:40:44.005Z,39.00
2023-02-15T12:50:55.145Z,38.40
2023-02-15T13:01:14.152Z,39.10
2023-02-15T13:11:30.300Z,37.20
2023-02-15T13:21:39.833Z,37.50
2023-02-15T13:31:46.914Z,37.00
2023-02-15T13:42:00.723Z,36.90
2023-02-15T13:52:20.013Z,36.00
2023-02-15T14:03:07.996Z,34.90
2023-02-15T14:13:52.871Z,33.30
2023-02-15T14:24:14.188Z,31.80
2023-02-15T14:34:26.744Z,30.30
2023-02-15T14:44:38.829Z,28.40
2023-02-15T14:55:37.346Z,25.30
2023-02-15T15:05:52.551Z,21.30
2023-02-15T15:15:57.580Z,16.60
2023-02-15T15:26:34.374Z,13.00
2023-02-15T15:37:46.689Z,10.70
2023-02-15T15:48:07.611Z,9.10
2023-02-15T15:58:19.489Z,8.00
2023-02-15T16:08:30.857Z,7.00
2023-02-15T16:18:39.963Z,6.00
2023-02-15T16:28:51.292Z,5.20
2023-02-15T16:39:20.666Z,4.40
2023-02-15T16:49:28.015Z,3.70
2023-02-15T16:59:38.363Z,3.10
2023-02-15T17:09:52.737Z,2.60
2023-02-15T17:19:58.009Z,2.00
2023-02-15T17:30:03.898Z,1.50
2023-02-15T17:40:22.551Z,1.30
2023-02-15T17:50:29.794Z,1.10
2023-02-15T18:00:57.390Z,0.70
2023-02-15T18:11:19.852Z,0.50
2023-02-15T18:21:26.207Z,0.10
2023-02-15T18:31:30.041Z,-0.30
2023-02-15T18:41:35.156Z,-0.60
2023-02-15T18:51:40.353Z,-0.80
2023-02-15T19:01:45.686Z,-1.10
2023-02-15T19:11:53.185Z,-1.30
2023-02-15T19:21:58.369Z,-1.30
2023-02-15T19:32:02.074Z,-1.40
2023-02-15T19:42:07.764Z,-1.50
2023-02-15T19:52:19.513Z,-1.90
2023-02-15T20:02:24.428Z,-2.10
2023-02-15T20:12:29.877Z,-2.10
2023-02-15T20:22:34.933Z,-2.40
2023-02-15T20:32:38.788Z,-2.60
2023-02-15T20:42:44.728Z,-2.70
2023-02-15T20:52:50.153Z,-2.90
2023-02-15T21:02:59.483Z,-2.80
2023-02-15T21:13:04.629Z,-3.00
2023-02-15T21:23:15.412Z,-3.20
2023-02-15T21:33:19.882Z,-3.30
2023-02-15T21:43:43.769Z,-3.30
2023-02-15T21:53:48.576Z,-3.50
2023-02-15T22:03:54.810Z,-3.40
2023-02-15T22:13:58.671Z,-3.40
2023-02-15T22:24:03.629Z,-3.40
2023-02-15T22:34:07.337Z,-3.50
2023-02-15T22:44:14.341Z,-3.50
2023-02-15T22:54:18.794Z,-3.60
2023-02-15T23:04:27.420Z,-3.60
2023-02-15T23:14:36.809Z,-3.70
2023-02-15T23:24:42.666Z,-3.70
2023-02-15T23:34:46.534Z,-3.80
2023-02-15T23:44:51.748Z,-4.00
2023-02-15T23:54:55.539Z,-4.10
